^^
Grace C. Lehan Memorial Weather Station Historical Data
Daily Summary for May 22, 2022 Units:  English    Metric   Both
Daily Weekly Monthly Yearly
  High: Low: Average:
Temperature: 93.6 °F 67.8 °F 79.8 °F
Dew Point: 76.1 °F 64.4 °F 69.5 °F
Humidity: 94% 46.1% 73%
Wind Speed: 10.3mph 0mph 0.3mph
Wind Gust: 25mph - -
Wind- - SW
Pressure: 30.00 in 29.84 in -
Precipitation: 0.22 in    
 
 
Tabular Data for May 22, 2022
Time Temperature Dew Point Pressure Wind Wind Speed Wind Gust Humidity Rainfall Rate (Hourly) solar
00:00 72.5 °F 67.7 °F 30.00 in Calm     85% 0.00 in 0 W/m2
00:09 72.6 °F 67.8 °F 30.00 in Calm     85% 0.00 in 0 W/m2
00:14 72.6 °F 67.8 °F 30.00 in Calm     85% 0.00 in 0 W/m2
00:19 72.5 °F 67.8 °F 30.00 in Calm     85% 0.00 in 0 W/m2
00:24 72.5 °F 67.7 °F 30.00 in Calm     85% 0.00 in 0 W/m2
00:29 72.4 °F 67.6 °F 30.00 in Calm     85% 0.00 in 0 W/m2
00:34 72.3 °F 67.5 °F 30.00 in Calm     85% 0.00 in 0 W/m2
00:39 72.2 °F 67.4 °F 29.99 in Calm     85% 0.00 in 0 W/m2
00:44 72.1 °F 67.3 °F 29.99 in Calm     85% 0.00 in 0 W/m2
00:49 72 °F 67.5 °F 29.99 in Calm     85.7% 0.00 in 0 W/m2
00:54 71.9 °F 67.5 °F 29.99 in Calm     86% 0.00 in 0 W/m2
00:59 71.7 °F 67.3 °F 29.98 in Calm     86% 0.00 in 0 W/m2
01:04 71.6 °F 67.2 °F 29.98 in Calm     86% 0.00 in 0 W/m2
01:09 71.5 °F 67.1 °F 29.98 in Calm     86% 0.00 in 0 W/m2
01:14 71.3 °F 66.9 °F 29.98 in Calm     86% 0.00 in 0 W/m2
01:19 71.2 °F 66.8 °F 29.97 in Calm     86% 0.00 in 0 W/m2
01:24 71.1 °F 67 °F 29.97 in Calm     87% 0.00 in 0 W/m2
01:29 71 °F 66.9 °F 29.97 in Calm     87% 0.00 in 0 W/m2
01:34 70.9 °F 66.8 °F 29.97 in Calm     87% 0.00 in 0 W/m2
01:39 70.8 °F 66.6 °F 29.97 in Calm     86.6% 0.00 in 0 W/m2
01:44 70.7 °F 66.4 °F 29.97 in Calm     86.1% 0.00 in 0 W/m2
01:49 70.6 °F 66.6 °F 29.97 in Calm     87% 0.00 in 0 W/m2
01:54 70.5 °F 66.5 °F 29.97 in Calm     87% 0.00 in 0 W/m2
01:59 70.4 °F 66.4 °F 29.96 in Calm     87% 0.00 in 0 W/m2
02:04 70.3 °F 66.3 °F 29.96 in Calm     87% 0.00 in 0 W/m2
02:09 70.3 °F 66.2 °F 29.96 in Calm     87% 0.00 in 0 W/m2
02:14 70.2 °F 66.2 °F 29.96 in Calm     87% 0.00 in 0 W/m2
02:19 70.1 °F 66.1 °F 29.96 in Calm     87% 0.00 in 0 W/m2
02:24 70 °F 66 °F 29.96 in Calm     87% 0.00 in 0 W/m2
02:29 69.9 °F 65.9 °F 29.96 in Calm     87% 0.00 in 0 W/m2
02:34 69.9 °F 65.8 °F 29.95 in Calm     87% 0.00 in 0 W/m2
02:39 69.8 °F 65.7 °F 29.96 in Calm     87% 0.00 in 0 W/m2
02:44 69.7 °F 65.8 °F 29.96 in Calm     87.5% 0.00 in 0 W/m2
02:49 69.6 °F 65.9 °F 29.96 in Calm     88% 0.00 in 0 W/m2
02:54 69.5 °F 65.8 °F 29.96 in Calm     88% 0.00 in 0 W/m2
02:59 69.5 °F 65.8 °F 29.96 in Calm     88% 0.00 in 0 W/m2
03:04 69.5 °F 65.8 °F 29.96 in Calm     88% 0.00 in 0 W/m2
03:09 69.4 °F 65.7 °F 29.96 in Calm     88% 0.00 in 0 W/m2
03:14 69.4 °F 65.7 °F 29.96 in Calm     88% 0.00 in 0 W/m2
03:19 69.3 °F 65.6 °F 29.96 in Calm     88% 0.00 in 0 W/m2
03:24 69.2 °F 65.5 °F 29.96 in Calm     88% 0.00 in 0 W/m2
03:29 69.2 °F 65.5 °F 29.96 in Calm     88% 0.00 in 0 W/m2
03:34 69.1 °F 65.4 °F 29.96 in Calm     88% 0.00 in 0 W/m2
03:39 69 °F 65.3 °F 29.95 in Calm     88% 0.00 in 0 W/m2
03:44 68.9 °F 65.2 °F 29.95 in Calm     88% 0.00 in 0 W/m2
03:49 68.8 °F 65.1 °F 29.95 in Calm     88% 0.00 in 0 W/m2
03:54 68.7 °F 65 °F 29.95 in Calm     88% 0.00 in 0 W/m2
03:59 68.6 °F 65 °F 29.95 in Calm     88% 0.00 in 0 W/m2
04:00 68.6 °F 64.9 °F 29.95 in Calm     88% 0.00 in 0 W/m2
04:09 68.6 °F 65.2 °F 29.95 in Calm     89% 0.00 in 0 W/m2
04:14 68.5 °F 65.1 °F 29.95 in Calm     89% 0.00 in 0 W/m2
04:19 68.5 °F 65.1 °F 29.95 in Calm     89% 0.00 in 0 W/m2
04:24 68.5 °F 65.1 °F 29.94 in Calm     89% 0.00 in 0 W/m2
04:29 68.5 °F 65.1 °F 29.94 in Calm     89% 0.00 in 0 W/m2
04:34 68.5 °F 65.1 °F 29.94 in Calm     89% 0.00 in 0 W/m2
04:39 68.5 °F 65.1 °F 29.93 in Calm     89% 0.00 in 0 W/m2
04:44 68.4 °F 65 °F 29.93 in Calm     89% 0.00 in 0 W/m2
04:49 68.4 °F 65 °F 29.93 in Calm     89% 0.00 in 0 W/m2
04:54 68.4 °F 65 °F 29.93 in Calm     89% 0.00 in 0 W/m2
04:59 68.3 °F 65 °F 29.93 in Calm     89% 0.00 in 0 W/m2
05:04 68.3 °F 64.7 °F 29.93 in Calm     88.3% 0.00 in 0 W/m2
05:09 68.2 °F 64.8 °F 29.93 in Calm     88.7% 0.00 in 0 W/m2
05:14 68.2 °F 64.8 °F 29.93 in Calm     89% 0.00 in 0 W/m2
05:19 68.1 °F 64.7 °F 29.93 in Calm     89% 0.00 in 0 W/m2
05:24 68 °F 64.6 °F 29.93 in Calm     89% 0.00 in 0 W/m2
05:29 67.9 °F 64.6 °F 29.94 in Calm     89% 0.00 in 5 W/m2
05:34 67.9 °F 64.5 °F 29.93 in Calm     89% 0.00 in 9 W/m2
05:39 67.9 °F 64.5 °F 29.94 in Calm     89% 0.00 in 11 W/m2
05:44 67.8 °F 64.5 °F 29.94 in Calm     89% 0.00 in 14 W/m2
05:49 67.8 °F 64.4 °F 29.94 in Calm     89% 0.00 in 18 W/m2
05:54 67.8 °F 64.7 °F 29.94 in Calm     89.9% 0.00 in 23 W/m2
05:59 67.8 °F 64.8 °F 29.94 in Calm     90% 0.00 in 26 W/m2
06:04 67.8 °F 64.8 °F 29.95 in Calm     90% 0.00 in 30 W/m2
06:09 67.8 °F 64.8 °F 29.95 in Calm     90% 0.00 in 33 W/m2
06:14 67.9 °F 64.9 °F 29.95 in Calm     90% 0.00 in 39 W/m2
06:19 68 °F 65 °F 29.96 in Calm     90% 0.00 in 44 W/m2
06:24 68.1 °F 65.1 °F 29.96 in Calm     90% 0.00 in 53 W/m2
06:29 68.3 °F 65.3 °F 29.96 in Calm   1 mph 90% 0.00 in 109 W/m2
06:34 68.6 °F 65.6 °F 29.96 in Calm   1 mph 90% 0.00 in 137 W/m2
06:39 69 °F 66 °F 29.96 in Calm     90% 0.00 in 158 W/m2
06:44 69.5 °F 66.2 °F 29.96 in Calm     89.2% 0.00 in 179 W/m2
06:49 70.1 °F 66.5 °F 29.96 in Calm     88.4% 0.00 in 199 W/m2
06:54 70.7 °F 66.8 °F 29.96 in Calm     87.3% 0.00 in 216 W/m2
06:59 71.5 °F 67.4 °F 29.96 in Calm     86.9% 0.00 in 236 W/m2
07:04 72.3 °F 67.5 °F 29.96 in Calm     85% 0.00 in 255 W/m2
07:09 73.1 °F 67.9 °F 29.96 in Calm     84% 0.00 in 271 W/m2
07:14 73.8 °F 68.3 °F 29.96 in Calm     83% 0.00 in 299 W/m2
07:19 74.5 °F 68.3 °F 29.96 in Calm     81% 0.00 in 309 W/m2
07:24 75.1 °F 68.4 °F 29.96 in Calm     79.8% 0.00 in 309 W/m2
07:29 75.6 °F 68.6 °F 29.96 in Calm     79% 0.00 in 308 W/m2
07:34 76 °F 69 °F 29.96 in Calm     78.8% 0.00 in 339 W/m2
07:39 76.7 °F 69.3 °F 29.96 in Calm     78% 0.00 in 362 W/m2
07:44 77.4 °F 69.5 °F 29.96 in Calm     76.7% 0.00 in 374 W/m2
07:49 78.1 °F 69.8 °F 29.96 in Calm     75.6% 0.00 in 366 W/m2
07:54 78.7 °F 69.8 °F 29.96 in Calm     74.4% 0.00 in 366 W/m2
07:59 79.1 °F 70.1 °F 29.96 in Calm     74% 0.00 in 396 W/m2
08:00 79.4 °F 70.4 °F 29.96 in Calm     74% 0.00 in 392 W/m2
08:09 80.3 °F 71.1 °F 29.96 in Calm     73.6% 0.00 in 431 W/m2
08:14 80.9 °F 71.3 °F 29.96 in Calm     72.7% 0.00 in 448 W/m2
08:19 81.6 °F 71.5 °F 29.96 in Calm     71.4% 0.00 in 461 W/m2
08:24 82.2 °F 71.1 °F 29.96 in Calm     69.2% 0.00 in 468 W/m2
08:29 82.6 °F 71.4 °F 29.96 in Calm     69% 0.00 in 496 W/m2
08:34 82.9 °F 71.8 °F 29.96 in Calm     69.2% 0.00 in 540 W/m2
08:39 83.2 °F 71.6 °F 29.96 in Calm     68.1% 0.00 in 608 W/m2
08:44 83.4 °F 71.6 °F 29.96 in Calm     67.5% 0.00 in 613 W/m2
08:49 83.7 °F 71.8 °F 29.96 in Calm     67.5% 0.00 in 596 W/m2
08:54 83.9 °F 71.8 °F 29.95 in Calm     67% 0.00 in 594 W/m2
08:59 84 °F 72.4 °F 29.95 in Calm     68.1% 0.00 in 580 W/m2
09:04 84.3 °F 72.7 °F 29.95 in Calm     68.4% 0.00 in 603 W/m2
09:09 84.4 °F 72.2 °F 29.95 in Calm     66.8% 0.00 in 613 W/m2
09:14 84.7 °F 72.5 °F 29.95 in Calm     66.8% 0.00 in 628 W/m2
09:19 85.2 °F 73 °F 29.95 in Calm     67% 0.00 in 654 W/m2
09:24 85.8 °F 73.5 °F 29.95 in Calm     66.9% 0.00 in 726 W/m2
09:29 86.4 °F 73.6 °F 29.95 in Calm   2 mph 65.9% 0.00 in 735 W/m2
09:34 86.9 °F 73 °F 29.95 in Calm   2 mph 63.6% 0.00 in 715 W/m2
09:39 87 °F 73.8 °F 29.95 in SW 0.6 mph 5 mph 65% 0.00 in 708 W/m2
09:44 87.3 °F 74 °F 29.96 in SW 0.5 mph 5 mph 64.6% 0.00 in 779 W/m2
09:49 87.7 °F 73.6 °F 29.95 in SW 0.1 mph 5 mph 63.1% 0.00 in 779 W/m2
09:54 88 °F 73.9 °F 29.95 in Calm   5 mph 63.2% 0.00 in 742 W/m2
09:59 88.4 °F 74.2 °F 29.95 in Calm   5 mph 63% 0.00 in 824 W/m2
10:04 88.8 °F 74.2 °F 29.95 in Calm   5 mph 62.2% 0.00 in 902 W/m2
10:09 89.3 °F 74.7 °F 29.95 in SW 0.2 mph 3 mph 62.4% 0.00 in 823 W/m2
10:14 89.6 °F 74.7 °F 29.95 in SW 0.3 mph 4 mph 61.8% 0.00 in 969 W/m2
10:19 89.8 °F 74.7 °F 29.95 in Calm   4 mph 61.3% 0.00 in 823 W/m2
10:24 90 °F 75.3 °F 29.95 in WSW 0.4 mph 5 mph 62.1% 0.00 in 786 W/m2
10:29 89.6 °F 73.5 °F 29.95 in WSW 0.1 mph 5 mph 59.1% 0.00 in 585 W/m2
10:34 88.9 °F 72.9 °F 29.95 in Calm   5 mph 59.3% 0.00 in 599 W/m2
10:39 88.4 °F 73.6 °F 29.95 in WSW 0.1 mph 2 mph 61.6% 0.00 in 441 W/m2
10:44 88.2 °F 73.6 °F 29.95 in Calm   3 mph 62.1% 0.00 in 508 W/m2
10:49 88.1 °F 73.9 °F 29.94 in WSW 0.1 mph 3 mph 63.1% 0.00 in 429 W/m2
10:54 87.9 °F 73.7 °F 29.94 in Calm   3 mph 63.1% 0.00 in 547 W/m2
10:59 87.7 °F 74.1 °F 29.94 in SW 0.1 mph 3 mph 64% 0.00 in 557 W/m2
11:04 87.5 °F 73.8 °F 29.94 in Calm   3 mph 63.9% 0.00 in 954 W/m2
11:09 87.7 °F 75.3 °F 29.93 in SW 0.1 mph 2 mph 67% 0.00 in 1005 W/m2
11:14 88.3 °F 75.1 °F 29.93 in Calm   2 mph 65.1% 0.00 in 1005 W/m2
11:19 88.8 °F 75.1 °F 29.93 in Calm   2 mph 63.9% 0.00 in 700 W/m2
11:24 89.4 °F 76 °F 29.93 in Calm   2 mph 64.9% 0.00 in 1088 W/m2
11:29 90.2 °F 76.1 °F 29.93 in SW 0.2 mph 5 mph 63.6% 0.00 in 1088 W/m2
11:34 90.8 °F 75.9 °F 29.93 in SW 0.6 mph 6 mph 61.8% 0.00 in 963 W/m2
11:39 91.2 °F 75.1 °F 29.93 in SW 0.9 mph 6 mph 59.4% 0.00 in 953 W/m2
11:44 91.4 °F 74.5 °F 29.93 in WSW 0.8 mph 8 mph 57.9% 0.00 in 953 W/m2
11:49 91.7 °F 75.1 °F 29.93 in West 0.2 mph 8 mph 58.5% 0.00 in 693 W/m2
11:54 92.1 °F 74.6 °F 29.94 in WSW 1.3 mph 8 mph 56.7% 0.00 in 570 W/m2
11:59 92.1 °F 73.4 °F 29.94 in SW 0.4 mph 8 mph 54.6% 0.00 in 272 W/m2
12:00 91.9 °F 73.4 °F 29.93 in Calm   8 mph 55% 0.00 in 248 W/m2
12:09 91.2 °F 73.8 °F 29.94 in Calm     56.7% 0.00 in 316 W/m2
12:14 90.9 °F 73.8 °F 29.94 in SW 0.3 mph 4 mph 57.5% 0.00 in 299 W/m2
12:19 90.5 °F 73.5 °F 29.94 in SW 0.6 mph 4 mph 57.5% 0.00 in 221 W/m2
12:24 90.1 °F 72.1 °F 29.94 in WSW 0.4 mph 5 mph 55.7% 0.00 in 230 W/m2
12:29 89.6 °F 72.2 °F 29.94 in West 1.5 mph 9 mph 56.6% 0.00 in 213 W/m2
12:34 89.2 °F 72.4 °F 29.94 in West 0.2 mph 9 mph 57.8% 0.00 in 186 W/m2
12:39 88.7 °F 72.4 °F 29.94 in SW 0.4 mph 6 mph 58.8% 0.00 in 193 W/m2
12:44 88.3 °F 72.1 °F 29.94 in WSW 0.7 mph 6 mph 59% 0.00 in 209 W/m2
12:49 88 °F 72.5 °F 29.94 in Calm   6 mph 60.3% 0.00 in 295 W/m2
12:54 87.9 °F 73 °F 29.93 in Calm   6 mph 61.5% 0.00 in 345 W/m2
12:59 87.9 °F 73.7 °F 29.93 in Calm   6 mph 62.9% 0.00 in 350 W/m2
13:04 88 °F 73.8 °F 29.93 in SW 0.1 mph 6 mph 62.9% 0.00 in 346 W/m2
13:09 88.2 °F 73.3 °F 29.93 in WSW 0.2 mph 3 mph 61.4% 0.00 in 396 W/m2
13:14 88.3 °F 73 °F 29.92 in WSW 0.5 mph 3 mph 60.7% 0.00 in 494 W/m2
13:19 88.5 °F 73 °F 29.92 in West 0.9 mph 6 mph 60.4% 0.00 in 1269 W/m2
13:24 89 °F 73.5 °F 29.91 in SSW 0.2 mph 6 mph 60.3% 0.00 in 1269 W/m2
13:29 89.5 °F 73.8 °F 29.91 in SW 1.2 mph 9 mph 60% 0.00 in 432 W/m2
13:34 89.7 °F 73.2 °F 29.91 in Calm   9 mph 58.5% 0.00 in 323 W/m2
13:39 89.5 °F 72.6 °F 29.91 in Calm   1 mph 57.6% 0.00 in 318 W/m2
13:44 89.2 °F 72.4 °F 29.91 in Calm   1 mph 57.7% 0.00 in 323 W/m2
13:49 88.9 °F 71.8 °F 29.90 in WSW 0.1 mph 3 mph 57.2% 0.00 in 457 W/m2
13:54 88.9 °F 72.8 °F 29.90 in Calm   3 mph 59.2% 0.00 in 552 W/m2
13:59 89.1 °F 72.9 °F 29.90 in WSW 0.2 mph 3 mph 58.9% 0.00 in 490 W/m2
14:04 89.3 °F 72.6 °F 29.90 in Calm   3 mph 58% 0.00 in 540 W/m2
14:09 89.6 °F 72.8 °F 29.89 in Calm   1 mph 57.9% 0.00 in 564 W/m2
14:14 89.8 °F 72.8 °F 29.89 in WSW 0.2 mph 3 mph 57.5% 0.00 in 670 W/m2
14:19 90.1 °F 73 °F 29.89 in Calm   3 mph 57.4% 0.00 in 740 W/m2
14:24 90.3 °F 73.2 °F 29.89 in WSW 0.1 mph 3 mph 57.3% 0.00 in 940 W/m2
14:29 90.8 °F 72.8 °F 29.89 in WSW 0.4 mph 3 mph 55.8% 0.00 in 940 W/m2
14:34 91.2 °F 73 °F 29.89 in WSW 0.1 mph 3 mph 55.5% 0.00 in 868 W/m2
14:39 91.4 °F 72.8 °F 29.88 in WSW 0.2 mph 3 mph 54.7% 0.00 in 863 W/m2
14:44 91.7 °F 73 °F 29.88 in SSW 0.2 mph 3 mph 54.5% 0.00 in 849 W/m2
14:49 91.8 °F 72 °F 29.88 in Calm   3 mph 52.5% 0.00 in 846 W/m2
14:54 92 °F 72.7 °F 29.88 in Calm   3 mph 53.6% 0.00 in 830 W/m2
14:59 92.4 °F 73 °F 29.88 in South 0.2 mph 3 mph 53.3% 0.00 in 810 W/m2
15:04 92.7 °F 72.6 °F 29.87 in SW 0.7 mph 6 mph 52.2% 0.00 in 800 W/m2
15:09 92.9 °F 72.4 °F 29.87 in SW 0.2 mph 6 mph 51.4% 0.00 in 796 W/m2
15:14 93.1 °F 72 °F 29.87 in SW 1 mph 6 mph 50.5% 0.00 in 786 W/m2
15:19 93.3 °F 71.6 °F 29.87 in WSW 0.3 mph 6 mph 49.6% 0.00 in 773 W/m2
15:24 93.4 °F 71.3 °F 29.87 in Calm   6 mph 48.9% 0.00 in 763 W/m2
15:29 93.4 °F 71.8 °F 29.86 in Calm   6 mph 49.7% 0.00 in 747 W/m2
15:34 93.4 °F 72 °F 29.86 in Calm   6 mph 50% 0.00 in 733 W/m2
15:39 93.3 °F 71.9 °F 29.86 in SW 0.6 mph 6 mph 50% 0.00 in 726 W/m2
15:44 93.3 °F 71.4 °F 29.86 in WSW 0.4 mph 6 mph 49.1% 0.00 in 717 W/m2
15:49 93.4 °F 72.2 °F 29.86 in SW 0.4 mph 6 mph 50.3% 0.00 in 701 W/m2
15:54 93.6 °F 70.7 °F 29.85 in SW 0.2 mph 6 mph 47.6% 0.00 in 684 W/m2
15:59 93.4 °F 70.2 °F 29.85 in SSW 0.5 mph 6 mph 47% 0.00 in 675 W/m2
16:00 93.3 °F 70.7 °F 29.85 in Calm   6 mph 48% 0.00 in 668 W/m2
16:09 93 °F 70.1 °F 29.85 in SW 0.5 mph 5 mph 47.6% 0.00 in 547 W/m2
16:14 92.8 °F 69.1 °F 29.85 in SW 0.6 mph 5 mph 46.1% 0.00 in 95 W/m2
16:19 92.7 °F 69.3 °F 29.85 in SW 0.4 mph 5 mph 46.6% 0.00 in 95 W/m2
16:24 92.6 °F 69.1 °F 29.84 in SW 0.6 mph 5 mph 46.5% 0.00 in 91 W/m2
16:29 92.6 °F 68.9 °F 29.84 in SW 2.2 mph 9 mph 46.2% 0.00 in 84 W/m2
16:34 92.4 °F 68.7 °F 29.84 in SW 1.3 mph 9 mph 46.1% 0.00 in 93 W/m2
16:39 92.3 °F 68.9 °F 29.84 in WSW 1.7 mph 7 mph 46.5% 0.00 in 95 W/m2
16:44 92.2 °F 69.4 °F 29.84 in WSW 0.7 mph 7 mph 47.5% 0.00 in 91 W/m2
16:49 92.2 °F 69.4 °F 29.84 in WSW 0.6 mph 7 mph 47.6% 0.00 in 113 W/m2
16:54 92 °F 69.5 °F 29.84 in Calm   7 mph 48% 0.00 in 135 W/m2
16:59 92 °F 69.9 °F 29.84 in SW 0.4 mph 7 mph 48.8% 0.00 in 135 W/m2
17:04 91.8 °F 70.1 °F 29.84 in SW 0.3 mph 7 mph 49.3% 0.00 in 149 W/m2
17:09 91.3 °F 70.9 °F 29.84 in SW 0.3 mph 4 mph 51.4% 0.00 in 149 W/m2
17:14 90.7 °F 71 °F 29.84 in South 0.8 mph 4 mph 52.6% 0.00 in 105 W/m2
17:19 90 °F 70.7 °F 29.84 in South 0.2 mph 4 mph 53.2% 0.00 in 128 W/m2
17:24 89.7 °F 71 °F 29.84 in South 1.2 mph 4 mph 54.3% 0.00 in 116 W/m2
17:29 89.2 °F 70.4 °F 29.84 in South 1.4 mph 5 mph 54% 0.00 in 104 W/m2
17:34 88.8 °F 69.8 °F 29.84 in South 1.9 mph 6 mph 53.6% 0.00 in 93 W/m2
17:39 88.5 °F 70 °F 29.84 in South 0.5 mph 6 mph 54.5% 0.00 in 76 W/m2
17:44 88.3 °F 70.1 °F 29.84 in South 1.7 mph 6 mph 55% 0.00 in 69 W/m2
17:49 88 °F 69.5 °F 29.84 in South 1.3 mph 7 mph 54.4% 0.00 in 67 W/m2
17:54 87.8 °F 70 °F 29.84 in SW 0.7 mph 7 mph 55.6% 0.00 in 65 W/m2
17:59 87.7 °F 69.7 °F 29.84 in SSW 0.5 mph 7 mph 55.4% 0.00 in 63 W/m2
18:04 87.5 °F 69.8 °F 29.84 in South 0.7 mph 7 mph 55.8% 0.00 in 60 W/m2
18:09 87.4 °F 69.9 °F 29.84 in South 0.8 mph 6 mph 56.3% 0.00 in 56 W/m2
18:14 87.2 °F 70.6 °F 29.84 in SW 1.3 mph 6 mph 57.8% 0.00 in 56 W/m2
18:19 87.1 °F 71 °F 29.84 in SSW 0.8 mph 6 mph 58.9% 0.00 in 56 W/m2
18:24 87 °F 71.1 °F 29.84 in SSW 0.5 mph 6 mph 59.3% 0.00 in 53 W/m2
18:29 86.9 °F 71.6 °F 29.85 in SSW 0.6 mph 6 mph 60.5% 0.00 in 51 W/m2
18:34 86.7 °F 71.8 °F 29.85 in South 0.1 mph 6 mph 61.3% 0.00 in 49 W/m2
18:39 86.5 °F 72 °F 29.85 in South 1.2 mph 9 mph 62% 0.00 in 47 W/m2
18:44 86.3 °F 71.9 °F 29.84 in SSW 1 mph 9 mph 62.3% 0.00 in 44 W/m2
18:49 86 °F 71.9 °F 29.84 in South 0.6 mph 9 mph 62.9% 0.00 in 42 W/m2
18:54 85.7 °F 72 °F 29.85 in South 1 mph 9 mph 63.7% 0.00 in 40 W/m2
18:59 85.4 °F 72 °F 29.85 in South 0.3 mph 9 mph 64.2% 0.00 in 33 W/m2
19:04 85.2 °F 72 °F 29.85 in South 0.2 mph 9 mph 64.8% 0.00 in 35 W/m2
19:09 84.9 °F 71.9 °F 29.85 in South 0.1 mph 5 mph 65.2% 0.00 in 33 W/m2
19:14 84.7 °F 71.9 °F 29.85 in South 0.2 mph 5 mph 65.6% 0.00 in 21 W/m2
19:19 84.4 °F 71.8 °F 29.85 in South 0.5 mph 5 mph 66% 0.00 in 14 W/m2
19:24 84 °F 71.5 °F 29.86 in South 0.4 mph 5 mph 66% 0.00 in 11 W/m2
19:29 83.8 °F 71.2 °F 29.86 in South 0.1 mph 5 mph 66% 0.00 in 9 W/m2
19:34 83.4 °F 70.8 °F 29.87 in South 0.4 mph 5 mph 65.7% 0.00 in 7 W/m2
19:39 83 °F 70.5 °F 29.87 in SSW 0.3 mph 5 mph 66% 0.00 in 7 W/m2
19:44 82.7 °F 70.2 °F 29.87 in SSW 0.1 mph 5 mph 66% 0.00 in 7 W/m2
19:49 82.4 °F 70.1 °F 29.87 in Calm   5 mph 66.4% 0.00 in 5 W/m2
19:54 82.1 °F 70.1 °F 29.87 in Calm   5 mph 67% 0.00 in 0 W/m2
19:59 81.8 °F 70 °F 29.88 in South 0.1 mph 5 mph 67.4% 0.00 in 0 W/m2
20:00 81.7 °F 70.1 °F 29.88 in Calm   5 mph 68% 0.00 in 0 W/m2
20:09 81.3 °F 70.1 °F 29.91 in WNW 1.8 mph 5 mph 68.9% 0.00 in 0 W/m2
20:14 81 °F 69.9 °F 29.92 in WNW 2 mph 6 mph 69% 0.00 in 0 W/m2
20:19 80.8 °F 68.5 °F 29.93 in WNW 7.1 mph 19 mph 66.2% 0.00 in 0 W/m2
20:24 80.5 °F 66.9 °F 29.94 in WNW 7.8 mph 19 mph 63.3% 0.00 in 0 W/m2
20:29 80.2 °F 67.3 °F 29.96 in WNW 5.7 mph 19 mph 64.9% 0.00 in 0 W/m2
20:34 79.3 °F 68.2 °F 29.96 in WNW 10.3 mph 25 mph 68.8% 0.09 in 0 W/m2
20:39 77.3 °F 68.3 °F 29.96 in West 2.7 mph 25 mph 74% 0.11 in 0 W/m2
20:44 75.5 °F 68.4 °F 29.96 in WNW 3.3 mph 25 mph 78.7% 0.13 in 0 W/m2
20:49 74.2 °F 68.2 °F 29.95 in WNW 0.4 mph 25 mph 81.8% 0.13 in 0 W/m2
20:54 73.3 °F 68.3 °F 29.96 in Calm   25 mph 84.3% 0.13 in 0 W/m2
20:59 72.8 °F 68.2 °F 29.96 in Calm   25 mph 85.6% 0.13 in 0 W/m2
21:04 72.4 °F 68.3 °F 29.97 in Calm   25 mph 86.9% 0.13 in 0 W/m2
21:09 71.9 °F 68.1 °F 29.97 in Calm     87.8% 0.14 in 0 W/m2
21:14 71.6 °F 68 °F 29.98 in Calm     88.4% 0.15 in 0 W/m2
21:19 71.4 °F 68 °F 29.98 in NNW 0.8 mph 4 mph 89.2% 0.17 in 0 W/m2
21:24 71.2 °F 68.2 °F 29.98 in NNW 0.6 mph 4 mph 90% 0.18 in 0 W/m2
21:29 71.1 °F 68 °F 29.98 in NNW 0.1 mph 4 mph 90% 0.19 in 0 W/m2
21:34 71 °F 68.1 °F 29.99 in NNW 0.1 mph 4 mph 90.8% 0.20 in 0 W/m2
21:39 70.8 °F 68.1 °F 29.98 in Calm   3 mph 91% 0.21 in 0 W/m2
21:44 70.7 °F 68 °F 29.97 in Calm   3 mph 91% 0.22 in 0 W/m2
21:49 70.7 °F 68.2 °F 29.97 in NNW 0.1 mph 3 mph 91.9% 0.22 in 0 W/m2
21:54 70.5 °F 68.1 °F 29.97 in Calm   3 mph 92% 0.22 in 0 W/m2
21:59 70.4 °F 68 °F 29.97 in Calm   3 mph 92% 0.22 in 0 W/m2
22:04 70.4 °F 68 °F 29.98 in Calm   3 mph 92% 0.22 in 0 W/m2
22:09 70.3 °F 67.9 °F 29.97 in Calm     92% 0.09 in 0 W/m2
22:14 70.3 °F 68.1 °F 29.96 in Calm     92.7% 0.09 in 0 W/m2
22:19 70.3 °F 68.2 °F 29.96 in Calm     93% 0.09 in 0 W/m2
22:24 70.3 °F 68.2 °F 29.96 in Calm     93% 0.09 in 0 W/m2
22:29 70.3 °F 68.2 °F 29.95 in Calm     93% 0.09 in 0 W/m2
22:34 70.2 °F 68.1 °F 29.95 in Calm     93% 0.09 in 0 W/m2
22:39 70.1 °F 68 °F 29.96 in Calm     93% 0.03 in 0 W/m2
22:44 70.1 °F 68 °F 29.96 in Calm     93% 0.03 in 0 W/m2
22:49 70 °F 67.9 °F 29.96 in Calm     93% 0.03 in 0 W/m2
22:54 69.9 °F 67.8 °F 29.96 in Calm     93% 0.03 in 0 W/m2
22:59 69.8 °F 67.7 °F 29.96 in Calm     93% 0.03 in 0 W/m2
23:04 69.7 °F 67.6 °F 29.97 in Calm     93% 0.03 in 0 W/m2
23:09 69.6 °F 67.5 °F 29.97 in Calm     93% 0.00 in 0 W/m2
23:14 69.5 °F 67.4 °F 29.97 in Calm     93% 0.00 in 0 W/m2
23:19 69.4 °F 67.6 °F 29.97 in Calm     93.8% 0.00 in 0 W/m2
23:24 69.4 °F 67.5 °F 29.97 in Calm     93.8% 0.00 in 0 W/m2
23:29 69.2 °F 67.1 °F 29.97 in Calm     93% 0.00 in 0 W/m2
23:34 69.2 °F 67.1 °F 29.97 in Calm     93.3% 0.00 in 0 W/m2
23:39 69 °F 67.3 °F 29.97 in Calm     94% 0.00 in 0 W/m2
23:44 69 °F 67.2 °F 29.97 in Calm     94% 0.00 in 0 W/m2
23:49 68.9 °F 67.1 °F 29.98 in NW 1.4 mph 11 mph 94% 0.00 in 0 W/m2
23:54 68.6 °F 66.5 °F 29.98 in WNW 2.7 mph 11 mph 93.2% 0.00 in 0 W/m2
23:59 67.9 °F 65.7 °F 29.98 in WNW 1.8 mph 11 mph 92.6% 0.00 in 0 W/m2
Hartford County Weather
Compliments of Weather Underground - 2 mb